Aviation Digital Data Service (ADDS)

Output produced by METARs form (0337 UTC 24 February 2017)
found at http://www.aviationweather.gov/adds/metars/
 
OEAB 240300Z 20004KT CAVOK 09/09 Q1023 NOSIG
TAF OEAB 232300Z 2400/2506 VRB03KT 7000 FEW020 SCT080 
     TEMPO 2400/2405 3000 BR 
     BECMG 2406/2408 23008G18KT 
     TEMPO 2410/2418 SCT020 FEW025CB
       
OEAH 240300Z 34008KT 2000 BR SKC 14/12 Q1018 NOSIG
TAF OEAH 232300Z 2400/2506 36008G18KT 7000 SCT040 SCT100 
     TEMPO 2400/2412 3000 DU/BLDU
       
OEBA 240300Z 00000KT CAVOK 11/00 Q1020 NOSIG
TAF OEBA 232300Z 2400/2506 VRB03KT 7000 FEW030 SCT100 
     TEMPO 2400/2405 3000 BR 
     BECMG 2406/2408 23008G18KT 
     TEMPO 2410/2418 FEW025CB SCT030
       
OESK 240300Z 01003KT CAVOK 06/M12 Q1024 NOSIG
TAF OESK 232300Z 2400/2506 05006G16KT 7000 SKC 
     TEMPO 2406/2418 3500 DU/BLDU
       
OERR 240300Z 27007KT CAVOK 03/M08 Q1023 NOSIG
TAF OERR 232300Z 2400/2506 30008KT 7000 SKC 
     BECMG 2407/2409 03008G18KT 
     TEMPO 2407/2418 3500 DU/BLDU
       
OEBH 240300Z 17003KT CAVOK 13/01 Q1019 NOSIG
TAF OEBH 232300Z 2400/2506 VRB03KT 7000 FEW030 SCT100 
     BECMG 2406/2408 08008G18KT 
     TEMPO 2410/2418 4000 DU/BLDU FEW025CB SCT030
       
OEGS 240200Z 04007KT 9999 SCT040 10/10 Q1021
TAF OEGS 232300Z 2400/2506 03008G18KT 6000 FEW040 SCT100 
     TEMPO 2400/2412 3000 DU/BLDU
       
OEGT 240300Z 00000KT 8000 SKC 04/03 Q1024 NOSIG
TAF OEGT 232300Z 2400/2506 VRB04KT 7000 NSC 
     BECMG 2406/2408 24014KT
       
OEHL 240300Z 03002KT CAVOK 05/01 Q1023 NOSIG
TAF OEHL 232300Z 2400/2506 03006G16KT 7000 NSC 
     TEMPO 2406/2416 3500 DU/BLDU
       
OEGN 240300Z 00000KT 9000 FEW030 24/21 Q1013 NOSIG
TAF OEGN 232300Z 2400/2506 VRB03KT 7000 FEW030 
     TEMPO 2400/2405 3000 BR 
     BECMG 2406/2408 26006G16KT 
     TEMPO 2410/2416 SCT030
       
OEJB 240300Z AUTO 34012KT 9999 FEW012/// OVC052/// 15/13 Q1020 NOSIG
OEDR 240100Z 33007KT 5000 BR NSC 16/14 Q1015 NOSIG
TAF OEDR 240400Z 2406/2512 36008G18KT 8000 NSC
       
OEJN 240300Z 36008KT CAVOK 19/09 Q1014 NOSIG
TAF OEJN 232300Z 2400/2506 02010KT 9999 FEW040 
     BECMG 2412/2414 28015KT
       
OEDF 240300Z 36006KT 5000 BR FEW040 15/13 Q1019 NOSIG
TAF OEDF 232200Z 2400/2506 34008G18KT 8000 NSC
       
OEKM 240300Z 14005KT CAVOK 12/09 Q1022 NOSIG
TAF OEKM 232300Z 2400/2506 VRB03KT 7000 FEW020 SCT080 
     TEMPO 2400/2405 3000 BR 
     BECMG 2406/2408 23008G18KT 
     TEMPO 2410/2418 SCT020 FEW025CB
       
OERK 240300Z 01010KT 7000 FEW040 12/09 Q1022 NOSIG
TAF OERK 232300Z 2400/2506 36010G20KT 6000 NSC 
     TEMPO 2400/2406 3000 DU/BLDU 
     PROB30 
     TEMPO 2400/2404 1000
       
OENG 240300Z 00000KT CAVOK 16/02 Q1019 NOSIG
TAF OENG 232300Z 2400/2506 250008KT 7000 SCT030 SCT090 
     BECMG 2406/2408 07008G18KT 
     TEMPO 2407/2416 3500 DU/BLDU FEW035CB
       
OEMA 240300Z 09010KT 8000 SKC 14/03 Q1023 NOSIG
TAF OEMA 232300Z 2400/2506 08008G18KT 7000 SKC 
     TEMPO 2406/2412 4000 DU/BLDU
       
OEPA 240300Z 32004KT 6000 SKC 08/07 Q1023 NOSIG
TAF OEPA 232300Z 2400/2506 36008G18KT 7000 FEW040 
     TEMPO 2406/2416 3000 DU/BLDU
       
OERF 240300Z 00000KT CAVOK 03/M07 Q1023
TAF OERF 232300Z 2400/2506 30008KT 7000 SKC 
     BECMG 2407/2409 03008G18KT 
     TEMPO 2407/2418 3500 DU/BLDU
       
TAF OERY 232300Z 2400/2506 03010G20KT 6000 FEW040 SCT100 
     TEMPO 2400/2412 3000 DU/BLDU SCT040
       
OESH 240300Z 03005KT CAVOK 17/M01 Q1014 NOSIG
TAF OESH 232300Z 2400/2506 23008KT 7000 FEW040 SCT100 
     BECMG 2406/2408 03008G18KT 
     TEMPO 2406/2416 3500 DU/BLDU
       
OETB 240300Z 08010KT CAVOK 08/M08 Q1022 NOSIG
TAF OETB 232300Z 2400/2506 08006G16KT 7000 SKC 
     TEMPO 2406/2418 3500 DU/BLDU
       
OETF 240200Z 00000KT CAVOK 10/M01 Q1020 NOSIG
TAF OETF 232300Z 2400/2506 17006G16KT 7000 FEW030 SCT100 
     TEMPO 2410/2418 FEW025CB SCT030
       
OETR 240300Z 00000KT CAVOK 04/M07 Q1024
TAF OETR 232300Z 2400/2506 VRB04KT 7000 NSC 
     BECMG 2406/2408 24014KT
       
OEWD 240100Z 36010KT 8000 SKC 17/09 Q1015 NOSIG
TAF OEWD 232300Z 2400/2506 04006G16KT 7000 FEW030 SCT080 
     TEMPO 2400/2412 3000 DU/BLDU SCT030
       
OEWJ 240300Z 02005KT CAVOK 16/02 Q1017 NOSIG
TAF OEWJ 232300Z 2400/2506 07010G20KT 7000 NSC 
     TEMPO 2400/2412 3500 DU/BLDU 
     BECMG 2415/2417 30010KT
       
OEYN 240300Z 01004KT CAVOK 13/07 Q1015 NOSIG
TAF OEYN 232300Z 2400/2506 08010G20KT 7000 NSC 
     TEMPO 2400/2412 3500 DU/BLDU